Lisa Ann II — WDB3573 — position and weather

sailwx.info

Track history (hours):
 
Tides and Currents Weather Stations Pressure Air Temp Water Temp Dewpoint Dewpoint Depression Visibility Wind Speed Wind Dir Waves Ship Positions

Lisa Ann II

Owner: FORD, JIM D, E KINGSTON, NH. More information available from US FCC via Universal Licensing System and Coast Guard Vessel Documentation Center.

Last reported at 2017-Nov-18 18:00 UTC. Time now 2017-Nov-22 21:53 UTC.
Position N 42°36' W 070°36'.

Length 17 m; draft 3 m.

Type: Fishing. MMSI: 366888690.

Wind from 190 at 11 knots

Barometer 1011.0 mb
Air temperature 6.4 ° C
Dewpoint -4.1 ° C

Date/timePositionNaut miles runAvg speedWind from/ knotsBaromVisibWave heightAir tempDewpointWater temp
2017-Nov-18 18:00N 42°36' W 070°36'4 4.4 190 / 111011.0 6.4-4.1
2017-Nov-18 17:00N 42°36' W 070°30'7 7.4 180 / 91012.0 5.7-5.0
2017-Nov-18 16:00N 42°42' W 070°24'4 4.4 180 / 21014.0 4.8-8.0
2017-Nov-18 15:00N 42°42' W 070°18'0 0.0 300 / 41015.0 3.6-9.3
2017-Nov-18 14:00N 42°42' W 070°18'6 6.0 280 / 81015.0 3.0-5.8
2017-Nov-18 13:00N 42°48' W 070°18'0 0.0 260 / 61016.0 4.1-5.3
2017-Nov-18 12:00N 42°48' W 070°18'6 3.0 290 / 91016.0 2.6-5.7
2017-Nov-18 10:00N 42°42' W 070°18'4 4.4 300 / 131016.0 2.3-6.0
2017-Nov-18 09:00N 42°42' W 070°24'7 7.4 300 / 111016.0 2.0-6.6
2017-Nov-18 08:00N 42°36' W 070°30'9 8.8 300 / 71017.0 0.7-8.9
2017-Nov-18 07:00N 42°36' W 070°42'   320 / 51017.0 0.2-10.3
2017-Nov-13 22:00N 42°36' W 070°42'9 8.8 1027.0 6.5 4.3
2017-Nov-13 21:00N 42°36' W 070°30'7 7.4 050 / 81027.0 8.4 5.0
2017-Nov-13 20:00N 42°42' W 070°24'7 3.7 060 / 91027.0 9.2 4.4
2017-Nov-13 18:00N 42°48' W 070°18'0 0.0 100 / 101028.0 8.7 3.4
2017-Nov-13 17:00N 42°48' W 070°18'4 4.4 110 / 101028.0 8.7 3.8
2017-Nov-13 16:00N 42°48' W 070°24'4 4.4 130 / 91029.0 8.7 4.6
2017-Nov-13 15:00N 42°48' W 070°18'0 0.0 120 / 101029.0 9.1 4.0
2017-Nov-13 14:00N 42°48' W 070°18'4 4.4 130 / 71029.0 9.3 3.6
2017-Nov-13 13:00N 42°48' W 070°24'4 4.4 120 / 41030.0 9.2 3.5
2017-Nov-13 12:00N 42°48' W 070°18'6 6.0 070 / 71029.0 8.7 3.9
2017-Nov-13 11:00N 42°42' W 070°18'0 0.0 080 / 81029.0 8.5 3.8
2017-Nov-13 10:00N 42°42' W 070°18'11 5.3 080 / 71030.0 8.3 3.2
2017-Nov-13 08:00N 42°36' W 070°30'4 4.4 060 / 61030.0 8.1 2.7
2017-Nov-13 07:00N 42°36' W 070°36'0 0.0 340 / 51031.0 4.6 3.2
2017-Nov-12 18:00N 42°36' W 070°36'4 4.4 1032.0 5.1-2.1
2017-Nov-12 17:00N 42°36' W 070°30'1110.7 190 / 21033.0 5.3-3.2
2017-Nov-12 16:00N 42°42' W 070°18'0 0.0 170 / 21034.0 5.1-3.9
2017-Nov-12 15:00N 42°42' W 070°18'0 0.0 200 / 11034.0 5.0-5.5
2017-Nov-12 14:00N 42°42' W 070°18'4 4.4 250 / 21035.0 4.1-6.5
2017-Nov-12 13:00N 42°42' W 070°24'4 4.4 280 / 21035.0 3.6-7.4
2017-Nov-12 12:00N 42°42' W 070°18'6 6.0 280 / 51035.0 3.5-6.1
2017-Nov-12 11:00N 42°48' W 070°18'0 0.0 260 / 61034.0 3.8-3.9
2017-Nov-12 10:00N 42°48' W 070°18'6 6.0 260 / 71034.0 4.5-3.4
2017-Nov-12 09:00N 42°42' W 070°18'9 8.8 270 / 71034.0 4.0-3.9
2017-Nov-12 08:00N 42°42' W 070°30'7 7.4 290 / 51034.0 3.0-4.3
2017-Nov-12 07:00N 42°36' W 070°36'   330 / 61035.0 0.2-7.4
2017-Nov-09 19:00N 42°36' W 070°36'7 7.5 140 / 51020.0 8.8-0.0
2017-Nov-09 18:00N 42°30' W 070°30'7 7.5 120 / 41021.0 8.5-0.5
2017-Nov-09 17:00N 42°24' W 070°24'0 0.0 100 / 11023.0 8.8-0.9
2017-Nov-09 16:00N 42°24' W 070°24'0 0.0 120 / 21024.0 8.7-1.1
2017-Nov-09 15:00N 42°24' W 070°24'0 0.0 100 / 31025.0 9.1-1.5
2017-Nov-09 14:00N 42°24' W 070°24'6 6.0 080 / 51025.0 8.1-1.5
2017-Nov-09 13:00N 42°30' W 070°24'0 0.0 060 / 61026.0 8.0-2.1
2017-Nov-09 12:00N 42°30' W 070°24'4 4.4 040 / 61026.0 7.1-2.0
2017-Nov-09 11:00N 42°30' W 070°18'0 0.0 050 / 61026.0 7.1-2.0
2017-Nov-09 10:00N 42°30' W 070°18'4 4.4 040 / 61025.0 7.1-2.4
2017-Nov-09 09:00N 42°30' W 070°24'4 4.4 030 / 61025.0 6.9-1.9
2017-Nov-09 08:00N 42°30' W 070°30'   330 / 91025.0 5.3 2.1
Track history (hours):
 
Tides and Currents Weather Stations Pressure Air Temp Water Temp Dewpoint Dewpoint Depression Visibility Wind Speed Wind Dir Waves Ship Positions

Lisa Ann II

Owner: FORD, JIM D, E KINGSTON, NH. More information available from US FCC via Universal Licensing System and Coast Guard Vessel Documentation Center.

Last reported at 2017-Nov-18 18:00 UTC. Time now 2017-Nov-22 21:53 UTC.
Position N 42°36' W 070°36'.

Length 17 m; draft 3 m.

Type: Fishing. MMSI: 366888690.

Wind from 190 at 11 knots

Barometer 1011.0 mb
Air temperature 6.4 ° C
Dewpoint -4.1 ° C

Date/timePositionNaut miles runAvg speedWind from/ knotsBaromVisibWave heightAir tempDewpointWater temp
2017-Nov-18 18:00N 42°36' W 070°36'4 4.4 190 / 111011.0 6.4-4.1
2017-Nov-18 17:00N 42°36' W 070°30'7 7.4 180 / 91012.0 5.7-5.0
2017-Nov-18 16:00N 42°42' W 070°24'4 4.4 180 / 21014.0 4.8-8.0
2017-Nov-18 15:00N 42°42' W 070°18'0 0.0 300 / 41015.0 3.6-9.3
2017-Nov-18 14:00N 42°42' W 070°18'6 6.0 280 / 81015.0 3.0-5.8
2017-Nov-18 13:00N 42°48' W 070°18'0 0.0 260 / 61016.0 4.1-5.3
2017-Nov-18 12:00N 42°48' W 070°18'6 3.0 290 / 91016.0 2.6-5.7
2017-Nov-18 10:00N 42°42' W 070°18'4 4.4 300 / 131016.0 2.3-6.0
2017-Nov-18 09:00N 42°42' W 070°24'7 7.4 300 / 111016.0 2.0-6.6
2017-Nov-18 08:00N 42°36' W 070°30'9 8.8 300 / 71017.0 0.7-8.9
2017-Nov-18 07:00N 42°36' W 070°42'   320 / 51017.0 0.2-10.3
2017-Nov-13 22:00N 42°36' W 070°42'9 8.8 1027.0 6.5 4.3
2017-Nov-13 21:00N 42°36' W 070°30'7 7.4 050 / 81027.0 8.4 5.0
2017-Nov-13 20:00N 42°42' W 070°24'7 3.7 060 / 91027.0 9.2 4.4
2017-Nov-13 18:00N 42°48' W 070°18'0 0.0 100 / 101028.0 8.7 3.4
2017-Nov-13 17:00N 42°48' W 070°18'4 4.4 110 / 101028.0 8.7 3.8
2017-Nov-13 16:00N 42°48' W 070°24'4 4.4 130 / 91029.0 8.7 4.6
2017-Nov-13 15:00N 42°48' W 070°18'0 0.0 120 / 101029.0 9.1 4.0
2017-Nov-13 14:00N 42°48' W 070°18'4 4.4 130 / 71029.0 9.3 3.6
2017-Nov-13 13:00N 42°48' W 070°24'4 4.4 120 / 41030.0 9.2 3.5
2017-Nov-13 12:00N 42°48' W 070°18'6 6.0 070 / 71029.0 8.7 3.9
2017-Nov-13 11:00N 42°42' W 070°18'0 0.0 080 / 81029.0 8.5 3.8
2017-Nov-13 10:00N 42°42' W 070°18'11 5.3 080 / 71030.0 8.3 3.2
2017-Nov-13 08:00N 42°36' W 070°30'4 4.4 060 / 61030.0 8.1 2.7
2017-Nov-13 07:00N 42°36' W 070°36'0 0.0 340 / 51031.0 4.6 3.2
2017-Nov-12 18:00N 42°36' W 070°36'4 4.4 1032.0 5.1-2.1
2017-Nov-12 17:00N 42°36' W 070°30'1110.7 190 / 21033.0 5.3-3.2
2017-Nov-12 16:00N 42°42' W 070°18'0 0.0 170 / 21034.0 5.1-3.9
2017-Nov-12 15:00N 42°42' W 070°18'0 0.0 200 / 11034.0 5.0-5.5
2017-Nov-12 14:00N 42°42' W 070°18'4 4.4 250 / 21035.0 4.1-6.5
2017-Nov-12 13:00N 42°42' W 070°24'4 4.4 280 / 21035.0 3.6-7.4
2017-Nov-12 12:00N 42°42' W 070°18'6 6.0 280 / 51035.0 3.5-6.1
2017-Nov-12 11:00N 42°48' W 070°18'0 0.0 260 / 61034.0 3.8-3.9
2017-Nov-12 10:00N 42°48' W 070°18'6 6.0 260 / 71034.0 4.5-3.4
2017-Nov-12 09:00N 42°42' W 070°18'9 8.8 270 / 71034.0 4.0-3.9
2017-Nov-12 08:00N 42°42' W 070°30'7 7.4 290 / 51034.0 3.0-4.3
2017-Nov-12 07:00N 42°36' W 070°36'   330 / 61035.0 0.2-7.4
2017-Nov-09 19:00N 42°36' W 070°36'7 7.5 140 / 51020.0 8.8-0.0
2017-Nov-09 18:00N 42°30' W 070°30'7 7.5 120 / 41021.0 8.5-0.5
2017-Nov-09 17:00N 42°24' W 070°24'0 0.0 100 / 11023.0 8.8-0.9
2017-Nov-09 16:00N 42°24' W 070°24'0 0.0 120 / 21024.0 8.7-1.1
2017-Nov-09 15:00N 42°24' W 070°24'0 0.0 100 / 31025.0 9.1-1.5
2017-Nov-09 14:00N 42°24' W 070°24'6 6.0 080 / 51025.0 8.1-1.5
2017-Nov-09 13:00N 42°30' W 070°24'0 0.0 060 / 61026.0 8.0-2.1
2017-Nov-09 12:00N 42°30' W 070°24'4 4.4 040 / 61026.0 7.1-2.0
2017-Nov-09 11:00N 42°30' W 070°18'0 0.0 050 / 61026.0 7.1-2.0
2017-Nov-09 10:00N 42°30' W 070°18'4 4.4 040 / 61025.0 7.1-2.4
2017-Nov-09 09:00N 42°30' W 070°24'4 4.4 030 / 61025.0 6.9-1.9
2017-Nov-09 08:00N 42°30' W 070°30'   330 / 91025.0 5.3 2.1

Dump ship's entire track history